createdAt,value
2023-04-23T00:00:00.165Z,98894.25
2023-04-23T00:02:29.560Z,98892.69
2023-04-23T00:05:02.206Z,98891.56
2023-04-23T00:07:29.948Z,98884.03
2023-04-23T00:09:59.459Z,98890.16
2023-04-23T00:12:27.332Z,98890.25
2023-04-23T00:14:55.090Z,98885.91
2023-04-23T00:17:21.811Z,98881.63
2023-04-23T00:19:48.507Z,98877.38
2023-04-23T00:22:16.408Z,98880.22
2023-04-23T00:24:43.971Z,98876.78
2023-04-23T00:27:12.546Z,98876.06
2023-04-23T00:29:39.626Z,98877.38
2023-04-23T00:32:06.543Z,98869.16
2023-04-23T00:34:33.496Z,98872.00
2023-04-23T00:37:01.993Z,98868.03
2023-04-23T00:39:28.761Z,98863.06
2023-04-23T00:41:55.864Z,98868.06
2023-04-23T00:44:24.344Z,98861.56
2023-04-23T00:46:52.345Z,98861.94
2023-04-23T00:49:19.795Z,98857.38
2023-04-23T00:51:46.837Z,98854.63
2023-04-23T00:54:14.496Z,98847.31
2023-04-23T00:56:41.733Z,98838.41
2023-04-23T00:59:09.082Z,98834.50
2023-04-23T01:01:38.030Z,98830.91
2023-04-23T01:04:06.837Z,98834.31
2023-04-23T01:06:33.965Z,98834.38
2023-04-23T01:09:01.306Z,98828.03
2023-04-23T01:11:28.252Z,98819.41
2023-04-23T01:13:55.680Z,98817.38
2023-04-23T01:16:22.317Z,98815.38
2023-04-23T01:18:50.606Z,98805.75
2023-04-23T01:21:18.477Z,98809.66
2023-04-23T01:23:46.752Z,98811.34
2023-04-23T01:26:13.509Z,98806.22
2023-04-23T01:28:41.150Z,98806.44
2023-04-23T01:31:08.517Z,98811.38
2023-04-23T01:33:35.907Z,98807.28
2023-04-23T01:36:03.372Z,98807.50
2023-04-23T01:38:33.565Z,98804.91
2023-04-23T01:41:02.046Z,98810.84
2023-04-23T01:43:31.747Z,98811.56
2023-04-23T01:46:00.643Z,98799.09
2023-04-23T01:48:27.679Z,98806.50
2023-04-23T01:50:54.974Z,98799.38
2023-04-23T01:53:21.786Z,98802.34
2023-04-23T01:55:51.571Z,98792.19
2023-04-23T01:58:20.145Z,98792.22
2023-04-23T02:00:47.145Z,98795.50
2023-04-23T02:03:14.559Z,98795.66
2023-04-23T02:05:42.410Z,98794.31
2023-04-23T02:08:10.215Z,98793.63
2023-04-23T02:10:37.401Z,98785.66
2023-04-23T02:13:04.804Z,98788.50
2023-04-23T02:15:33.187Z,98794.69
2023-04-23T02:18:00.343Z,98790.91
2023-04-23T02:20:27.351Z,98788.66
2023-04-23T02:22:54.387Z,98788.44
2023-04-23T02:25:21.244Z,98789.00
2023-04-23T02:27:48.317Z,98785.09
2023-04-23T02:30:15.432Z,98785.69
2023-04-23T02:32:43.647Z,98783.16
2023-04-23T02:35:10.495Z,98778.41
2023-04-23T02:37:37.639Z,98781.72
2023-04-23T02:40:05.334Z,98784.88
2023-04-23T02:42:32.112Z,98780.59
2023-04-23T02:44:59.052Z,98780.34
2023-04-23T02:47:25.907Z,98782.50
2023-04-23T02:49:54.462Z,98782.38
2023-04-23T02:52:21.195Z,98782.03
2023-04-23T02:54:47.954Z,98776.31
2023-04-23T02:57:14.782Z,98775.34
2023-04-23T02:59:41.590Z,98775.69
2023-04-23T03:02:08.346Z,98772.38
2023-04-23T03:04:35.418Z,98772.13
2023-04-23T03:07:03.896Z,98774.28
2023-04-23T03:09:30.682Z,98783.44
2023-04-23T03:11:57.770Z,98777.84
2023-04-23T03:14:24.607Z,98772.84
2023-04-23T03:16:51.397Z,98779.88
2023-04-23T03:19:18.426Z,98774.31
2023-04-23T03:21:45.391Z,98772.75
2023-04-23T03:24:14.625Z,98769.66
2023-04-23T03:26:41.327Z,98765.25
2023-04-23T03:29:08.402Z,98765.13
2023-04-23T03:31:35.463Z,98766.22
2023-04-23T03:34:02.593Z,98759.91
2023-04-23T03:36:29.699Z,98764.75
2023-04-23T03:38:56.571Z,98758.00
2023-04-23T03:41:25.353Z,98759.66
2023-04-23T03:43:52.331Z,98760.16
2023-04-23T03:46:19.082Z,98759.31
2023-04-23T03:48:46.177Z,98761.31
2023-04-23T03:51:12.998Z,98760.06
2023-04-23T03:53:39.732Z,98753.22
2023-04-23T03:56:06.970Z,98759.00
2023-04-23T03:58:35.372Z,98751.50
2023-04-23T04:01:02.158Z,98758.84
2023-04-23T04:03:29.023Z,98762.91
2023-04-23T04:05:56.196Z,98749.19
2023-04-23T04:08:22.974Z,98749.94
2023-04-23T04:10:49.956Z,98755.06
2023-04-23T04:13:16.935Z,98747.59
2023-04-23T04:15:45.330Z,98745.19
2023-04-23T04:18:12.600Z,98744.50
2023-04-23T04:20:39.304Z,98742.69
2023-04-23T04:23:06.167Z,98740.56
2023-04-23T04:25:33.299Z,98745.53
2023-04-23T04:28:00.284Z,98741.47
2023-04-23T04:30:27.011Z,98738.47
2023-04-23T04:32:55.331Z,98743.19
2023-04-23T04:35:22.367Z,98738.25
2023-04-23T04:37:49.153Z,98729.13
2023-04-23T04:40:16.252Z,98735.66
2023-04-23T04:42:43.063Z,98742.09
2023-04-23T04:45:10.559Z,98737.69
2023-04-23T04:47:37.596Z,98735.81
2023-04-23T04:50:07.564Z,98745.56
2023-04-23T04:52:34.387Z,98736.47
2023-04-23T04:55:01.189Z,98734.09
2023-04-23T04:57:27.967Z,98744.13
2023-04-23T04:59:54.772Z,98742.16
2023-04-23T05:02:21.701Z,98748.38
2023-04-23T05:04:48.626Z,98730.56
2023-04-23T05:07:17.006Z,98738.47
2023-04-23T05:09:45.075Z,98736.88
2023-04-23T05:12:12.374Z,98748.66
2023-04-23T05:14:39.394Z,98752.72
2023-04-23T05:17:06.921Z,98752.47
2023-04-23T05:19:33.878Z,98751.31
2023-04-23T05:22:00.616Z,98757.53
2023-04-23T05:24:28.790Z,98755.16
2023-04-23T05:26:56.093Z,98750.19
2023-04-23T05:29:22.794Z,98750.78
2023-04-23T05:31:50.347Z,98744.44
2023-04-23T05:34:17.345Z,98745.28
2023-04-23T05:36:44.171Z,98759.44
2023-04-23T05:39:11.199Z,98753.91
2023-04-23T05:41:39.977Z,98761.28
2023-04-23T05:44:06.835Z,98760.13
2023-04-23T05:46:33.870Z,98762.03
2023-04-23T05:49:00.961Z,98762.13
2023-04-23T05:51:27.785Z,98769.06
2023-04-23T05:53:54.569Z,98768.00
2023-04-23T05:56:21.774Z,98763.47
2023-04-23T05:58:50.526Z,98762.19
2023-04-23T06:01:17.897Z,98758.81
2023-04-23T06:03:45.067Z,98759.81
2023-04-23T06:06:12.316Z,98753.59
2023-04-23T06:08:38.977Z,98753.84
2023-04-23T06:11:06.261Z,98752.31
2023-04-23T06:13:33.503Z,98758.81
2023-04-23T06:16:01.965Z,98755.56
2023-04-23T06:18:28.766Z,98758.81
2023-04-23T06:20:55.505Z,98769.75
2023-04-23T06:23:22.117Z,98766.72
2023-04-23T06:25:48.955Z,98772.31
2023-04-23T06:28:15.896Z,98770.31
2023-04-23T06:30:42.766Z,98774.44
2023-04-23T06:33:11.252Z,98769.41
2023-04-23T06:35:37.995Z,98767.16
2023-04-23T06:38:04.693Z,98774.19
2023-04-23T06:40:32.005Z,98779.19
2023-04-23T06:42:58.782Z,98776.78
2023-04-23T06:45:25.905Z,98774.03
2023-04-23T06:47:52.755Z,98775.72
2023-04-23T06:50:20.950Z,98764.28
2023-04-23T06:52:48.073Z,98771.91
2023-04-23T06:55:15.304Z,98770.09
2023-04-23T06:57:42.221Z,98772.06
2023-04-23T07:00:10.647Z,98766.44
2023-04-23T07:02:37.754Z,98772.41
2023-04-23T07:05:05.575Z,98773.56
2023-04-23T07:07:34.082Z,98766.94
2023-04-23T07:10:01.186Z,98773.34
2023-04-23T07:12:27.920Z,98778.19
2023-04-23T07:14:55.310Z,98772.66
2023-04-23T07:17:22.163Z,98775.78
2023-04-23T07:19:49.023Z,98780.69
2023-04-23T07:22:16.077Z,98784.63
2023-04-23T07:24:44.498Z,98781.97
2023-04-23T07:27:11.474Z,98787.31
2023-04-23T07:29:39.753Z,98784.53
2023-04-23T07:32:06.893Z,98786.41
2023-04-23T07:34:36.240Z,98784.41
2023-04-23T07:37:03.578Z,98789.47
2023-04-23T07:39:34.011Z,98794.63
2023-04-23T07:42:02.276Z,98796.44
2023-04-23T07:44:29.343Z,98797.03
2023-04-23T07:46:56.190Z,98793.91
2023-04-23T07:49:22.991Z,98797.69
2023-04-23T07:51:49.814Z,98800.09
2023-04-23T07:54:16.763Z,98806.31
2023-04-23T07:56:43.582Z,98794.47
2023-04-23T07:59:11.893Z,98803.59
2023-04-23T08:01:38.806Z,98800.13
2023-04-23T08:04:05.985Z,98798.63
2023-04-23T08:06:32.970Z,98798.38
2023-04-23T08:08:59.718Z,98797.53
2023-04-23T08:11:26.672Z,98794.41
2023-04-23T08:13:53.404Z,98803.25
2023-04-23T08:16:21.597Z,98795.97
2023-04-23T08:19:01.684Z,98803.78
2023-04-23T08:21:31.725Z,98802.88
2023-04-23T08:23:58.569Z,98806.44
2023-04-23T08:26:25.572Z,98812.59
2023-04-23T08:28:54.259Z,98811.69
2023-04-23T08:31:27.022Z,98817.00
2023-04-23T08:33:54.249Z,98820.69
2023-04-23T08:36:21.386Z,98816.91
2023-04-23T08:38:48.190Z,98814.13
2023-04-23T08:41:18.328Z,98818.47
2023-04-23T08:43:51.633Z,98811.66
2023-04-23T08:46:19.640Z,98812.34
2023-04-23T08:48:50.318Z,98820.47
2023-04-23T08:51:19.507Z,98814.16
2023-04-23T08:53:51.454Z,98816.72
2023-04-23T08:56:20.247Z,98820.69
2023-04-23T08:58:47.491Z,98814.84
2023-04-23T09:01:15.101Z,98823.50
2023-04-23T09:03:42.942Z,98809.28
2023-04-23T09:06:12.312Z,98815.91
2023-04-23T09:08:39.109Z,98814.66
2023-04-23T09:11:06.776Z,98811.28
2023-04-23T09:13:37.200Z,98824.53
2023-04-23T09:16:05.908Z,98822.94
2023-04-23T09:18:32.764Z,98818.34
2023-04-23T09:21:01.526Z,98816.28
2023-04-23T09:23:29.852Z,98812.94
2023-04-23T09:25:56.929Z,98824.47
2023-04-23T09:28:34.810Z,98818.47
2023-04-23T09:31:02.441Z,98834.44
2023-04-23T09:33:31.765Z,98832.75
2023-04-23T09:35:59.990Z,98833.28
2023-04-23T09:38:27.929Z,98832.72
2023-04-23T09:40:57.158Z,98834.91
2023-04-23T09:43:25.213Z,98834.47
2023-04-23T09:45:53.010Z,98839.28
2023-04-23T09:48:21.354Z,98840.97
2023-04-23T09:50:49.130Z,98847.13
2023-04-23T09:53:16.031Z,98853.84
2023-04-23T09:55:45.848Z,98848.41
2023-04-23T09:58:16.105Z,98843.22
2023-04-23T10:00:45.900Z,98851.72
2023-04-23T10:03:13.638Z,98857.22
2023-04-23T10:08:13.440Z,98852.31
2023-04-23T10:10:59.572Z,98851.38
2023-04-23T10:13:32.934Z,98851.56
2023-04-23T10:16:14.099Z,98849.78
2023-04-23T10:18:49.083Z,98853.72
2023-04-23T10:21:17.811Z,98855.34
2023-04-23T10:23:47.916Z,98858.28
2023-04-23T10:26:16.923Z,98860.78
2023-04-23T10:28:49.340Z,98868.00
2023-04-23T10:31:20.339Z,98871.44
2023-04-23T10:33:58.159Z,98867.41
2023-04-23T10:36:27.950Z,98868.75
2023-04-23T10:38:58.320Z,98873.03
2023-04-23T10:41:35.571Z,98867.81
2023-04-23T10:44:05.178Z,98870.09
2023-04-23T10:46:33.466Z,98872.31
2023-04-23T10:49:09.268Z,98867.41
2023-04-23T10:54:08.156Z,98867.81
2023-04-23T10:56:36.337Z,98869.09
2023-04-23T10:59:06.874Z,98871.41
2023-04-23T11:01:34.566Z,98874.25
2023-04-23T11:04:24.464Z,98872.53
2023-04-23T11:06:57.875Z,98873.22
2023-04-23T11:09:37.967Z,98879.84
2023-04-23T11:12:15.506Z,98882.84
2023-04-23T11:14:47.591Z,98875.22
2023-04-23T11:17:16.928Z,98871.34
2023-04-23T11:20:09.975Z,98878.47
2023-04-23T11:22:39.252Z,98871.66
2023-04-23T11:25:10.632Z,98874.78
2023-04-23T11:27:39.711Z,98877.19
2023-04-23T11:30:13.459Z,98882.75
2023-04-23T11:32:41.706Z,98880.19
2023-04-23T11:35:11.951Z,98885.47
2023-04-23T11:37:42.113Z,98887.81
2023-04-23T11:40:12.387Z,98886.25
2023-04-23T11:42:43.522Z,98881.22
2023-04-23T11:45:17.979Z,98880.44
2023-04-23T11:47:47.022Z,98892.16
2023-04-23T11:50:19.511Z,98885.94
2023-04-23T11:52:47.602Z,98898.97
2023-04-23T11:55:14.924Z,98897.78
2023-04-23T11:57:43.539Z,98902.22
2023-04-23T12:00:18.451Z,98897.72
2023-04-23T12:02:53.531Z,98900.50
2023-04-23T12:05:22.639Z,98903.91
2023-04-23T12:07:52.283Z,98905.44
2023-04-23T12:10:21.057Z,98909.19
2023-04-23T12:12:53.005Z,98911.72
2023-04-23T12:15:21.734Z,98915.22
2023-04-23T12:17:50.487Z,98910.84
2023-04-23T12:20:19.749Z,98914.31
2023-04-23T12:22:47.324Z,98915.28
2023-04-23T12:25:14.880Z,98920.13
2023-04-23T12:27:45.138Z,98918.47
2023-04-23T12:30:13.425Z,98913.91
2023-04-23T12:32:44.345Z,98919.06
2023-04-23T12:35:11.972Z,98924.63
2023-04-23T12:37:40.689Z,98920.09
2023-04-23T12:40:09.723Z,98919.09
2023-04-23T12:42:37.779Z,98916.53
2023-04-23T12:45:09.700Z,98923.81
2023-04-23T12:47:37.356Z,98924.81
2023-04-23T12:50:08.491Z,98917.41
2023-04-23T12:52:35.914Z,98927.97
2023-04-23T12:55:03.633Z,98921.16
2023-04-23T12:57:31.488Z,98923.47
2023-04-23T12:59:58.740Z,98931.00
2023-04-23T13:02:26.854Z,98928.19
2023-04-23T13:04:54.587Z,98923.66
2023-04-23T13:07:24.402Z,98931.22
2023-04-23T13:09:52.013Z,98936.34
2023-04-23T13:12:19.147Z,98931.09
2023-04-23T13:14:45.924Z,98935.78
2023-04-23T13:17:13.620Z,98935.25
2023-04-23T13:19:41.721Z,98931.97
2023-04-23T13:22:09.574Z,98936.81
2023-04-23T13:24:41.273Z,98935.88
2023-04-23T13:27:09.579Z,98950.28
2023-04-23T13:29:37.310Z,98946.44
2023-04-23T13:32:05.666Z,98951.41
2023-04-23T13:34:34.038Z,98952.44
2023-04-23T13:37:01.825Z,98948.88
2023-04-23T13:39:29.211Z,98950.81
2023-04-23T13:42:08.997Z,98943.13
2023-04-23T13:44:37.875Z,98940.09
2023-04-23T13:47:05.776Z,98946.44
2023-04-23T13:49:33.439Z,98953.63
2023-04-23T13:52:01.255Z,98944.53
2023-04-23T13:54:28.103Z,98948.13
2023-04-23T13:56:56.116Z,98944.78
2023-04-23T13:59:26.265Z,98943.44
2023-04-23T14:01:53.908Z,98942.31
2023-04-23T14:04:21.532Z,98945.09
2023-04-23T14:06:49.463Z,98943.97
2023-04-23T14:09:17.296Z,98945.34
2023-04-23T14:11:44.892Z,98944.78
2023-04-23T14:14:12.836Z,98944.25
2023-04-23T14:16:42.829Z,98940.94
2023-04-23T14:19:10.328Z,98944.81
2023-04-23T14:21:40.256Z,98947.81
2023-04-23T14:24:16.805Z,98938.72
2023-04-23T14:26:49.411Z,98934.34
2023-04-23T14:29:30.160Z,98938.72
2023-04-23T14:31:59.560Z,98936.38
2023-04-23T14:34:28.189Z,98928.47
2023-04-23T14:36:55.507Z,98931.44
2023-04-23T14:39:23.592Z,98948.59
2023-04-23T14:41:50.954Z,98938.63
2023-04-23T14:44:18.663Z,98944.13
2023-04-23T14:46:46.338Z,98940.81
2023-04-23T14:49:15.451Z,98939.59
2023-04-23T14:51:42.892Z,98948.56
2023-04-23T14:54:10.932Z,98942.69
2023-04-23T14:56:39.763Z,98944.94
2023-04-23T14:59:06.917Z,98947.59
2023-04-23T15:01:35.620Z,98950.78
2023-04-23T15:04:03.749Z,98954.94
2023-04-23T15:06:32.494Z,98960.00
2023-04-23T15:09:00.249Z,98958.09
2023-04-23T15:11:27.995Z,98966.31
2023-04-23T15:14:03.018Z,98966.53
2023-04-23T15:19:04.438Z,98971.34
2023-04-23T15:21:34.319Z,98967.97
2023-04-23T15:24:03.634Z,98975.00
2023-04-23T15:26:31.864Z,98981.91
2023-04-23T15:28:59.407Z,98989.16
2023-04-23T15:31:27.193Z,98983.81
2023-04-23T15:33:54.951Z,98986.91
2023-04-23T15:36:22.615Z,98985.97
2023-04-23T15:38:53.597Z,98991.06
2023-04-23T15:41:21.286Z,98989.28
2023-04-23T15:43:48.338Z,98994.47
2023-04-23T15:46:17.255Z,98989.41
2023-04-23T15:48:44.670Z,98997.44
2023-04-23T15:51:12.984Z,98989.28
2023-04-23T15:53:41.920Z,98998.31
2023-04-23T15:56:12.205Z,99003.91
2023-04-23T15:58:39.900Z,98992.81
2023-04-23T16:01:07.801Z,98990.31
2023-04-23T16:03:35.906Z,98998.31
2023-04-23T16:06:03.581Z,99006.03
2023-04-23T16:08:32.644Z,99007.09
2023-04-23T16:11:00.729Z,99004.97
2023-04-23T16:13:30.585Z,99005.81
2023-04-23T16:15:57.734Z,99014.56
2023-04-23T16:18:25.459Z,99013.38
2023-04-23T16:20:52.931Z,99009.66
2023-04-23T16:23:20.562Z,99012.91
2023-04-23T16:25:48.281Z,99008.56
2023-04-23T16:28:16.431Z,99017.53
2023-04-23T16:30:45.503Z,99017.88
2023-04-23T16:33:14.446Z,99002.63
2023-04-23T16:35:42.314Z,99020.72
2023-04-23T16:38:10.224Z,99018.00
2023-04-23T16:40:37.458Z,99015.13
2023-04-23T16:43:05.417Z,99022.53
2023-04-23T16:45:32.520Z,99031.69
2023-04-23T16:48:02.753Z,99029.31
2023-04-23T16:50:30.420Z,99041.59
2023-04-23T16:52:58.082Z,99041.78
2023-04-23T16:55:26.436Z,99040.75
2023-04-23T16:57:54.427Z,99037.75
2023-04-23T17:00:21.239Z,99037.38
2023-04-23T17:02:48.963Z,99048.50
2023-04-23T17:05:18.968Z,99057.72
2023-04-23T17:07:46.882Z,99057.13
2023-04-23T17:10:14.646Z,99061.84
2023-04-23T17:12:42.094Z,99067.72
2023-04-23T17:15:10.885Z,99073.53
2023-04-23T17:17:38.556Z,99076.50
2023-04-23T17:20:08.000Z,99093.06
2023-04-23T17:22:37.551Z,99095.38
2023-04-23T17:25:05.004Z,99099.63
2023-04-23T17:27:33.455Z,99104.88
2023-04-23T17:30:01.106Z,99099.34
2023-04-23T17:32:28.590Z,99104.47
2023-04-23T17:35:03.050Z,99105.31
2023-04-23T17:37:38.353Z,99107.28
2023-04-23T17:40:06.311Z,99111.38
2023-04-23T17:42:35.205Z,99102.41
2023-04-23T17:45:03.385Z,99106.81
2023-04-23T17:47:31.029Z,99105.31
2023-04-23T17:49:59.071Z,99103.09
2023-04-23T17:52:27.257Z,99103.16
2023-04-23T17:54:56.624Z,99100.25
2023-04-23T17:57:23.619Z,99102.66
2023-04-23T17:59:50.811Z,99096.38
2023-04-23T18:02:18.768Z,99097.72
2023-04-23T18:04:46.838Z,99098.13
2023-04-23T18:07:15.039Z,99095.94
2023-04-23T18:09:42.209Z,99097.38
2023-04-23T18:12:10.763Z,99103.97
2023-04-23T18:14:38.586Z,99101.09
2023-04-23T18:17:06.306Z,99100.53
2023-04-23T18:19:33.867Z,99094.66
2023-04-23T18:22:01.677Z,99107.19
2023-04-23T18:24:28.988Z,99109.22
2023-04-23T18:26:57.033Z,99110.88
2023-04-23T18:29:26.173Z,99122.81
2023-04-23T18:31:53.540Z,99114.63
2023-04-23T18:34:22.832Z,99120.31
2023-04-23T18:36:54.791Z,99123.41
2023-04-23T18:39:23.142Z,99126.06
2023-04-23T18:41:51.355Z,99121.78
2023-04-23T18:44:19.048Z,99130.09
2023-04-23T18:46:50.378Z,99128.56
2023-04-23T18:49:40.137Z,99134.97
2023-04-23T18:52:08.338Z,99136.16
2023-04-23T18:54:35.815Z,99136.41
2023-04-23T18:57:03.482Z,99149.72
2023-04-23T18:59:32.713Z,99146.88
2023-04-23T19:02:01.911Z,99149.63
2023-04-23T19:04:30.452Z,99163.75
2023-04-23T19:06:57.918Z,99173.16
2023-04-23T19:09:25.748Z,99173.50
2023-04-23T19:11:55.515Z,99183.50
2023-04-23T19:14:23.215Z,99181.59
2023-04-23T19:16:51.532Z,99184.34
2023-04-23T19:19:21.777Z,99194.06
2023-04-23T19:21:49.237Z,99189.22
2023-04-23T19:24:16.656Z,99193.22
2023-04-23T19:26:44.088Z,99186.69
2023-04-23T19:29:12.085Z,99191.94
2023-04-23T19:31:39.582Z,99199.56
2023-04-23T19:34:07.570Z,99197.03
2023-04-23T19:36:40.797Z,99204.69
2023-04-23T19:39:10.538Z,99202.78
2023-04-23T19:41:38.467Z,99211.19
2023-04-23T19:44:06.072Z,99210.69
2023-04-23T19:46:33.734Z,99224.03
2023-04-23T19:49:01.383Z,99231.75
2023-04-23T19:51:33.842Z,99233.78
2023-04-23T19:54:06.070Z,99246.56
2023-04-23T19:56:33.635Z,99246.44
2023-04-23T19:59:01.387Z,99244.88
2023-04-23T20:01:29.017Z,99248.34
2023-04-23T20:03:56.533Z,99254.50
2023-04-23T20:06:23.601Z,99253.59
2023-04-23T20:08:51.159Z,99249.59
2023-04-23T20:11:20.774Z,99256.19
2023-04-23T20:13:48.745Z,99260.06
2023-04-23T20:16:16.226Z,99255.41
2023-04-23T20:18:45.375Z,99263.09
2023-04-23T20:21:12.650Z,99267.91
2023-04-23T20:23:42.100Z,99260.59
2023-04-23T20:26:09.107Z,99262.28
2023-04-23T20:28:44.258Z,99269.28
2023-04-23T20:31:11.626Z,99268.91
2023-04-23T20:33:38.435Z,99267.16
2023-04-23T20:36:06.280Z,99275.03
2023-04-23T20:38:33.964Z,99280.13
2023-04-23T20:41:00.888Z,99284.84
2023-04-23T20:43:29.131Z,99288.31
2023-04-23T20:45:58.533Z,99281.25
2023-04-23T20:48:26.144Z,99285.34
2023-04-23T20:50:54.578Z,99288.69
2023-04-23T20:53:22.129Z,99282.31
2023-04-23T20:55:49.575Z,99292.53
2023-04-23T20:58:17.613Z,99305.97
2023-04-23T21:00:45.191Z,99302.41
2023-04-23T21:03:15.721Z,99310.81
2023-04-23T21:05:44.637Z,99303.69
2023-04-23T21:08:12.650Z,99314.09
2023-04-23T21:10:41.272Z,99320.31
2023-04-23T21:13:11.604Z,99318.97
2023-04-23T21:15:40.031Z,99319.34
2023-04-23T21:18:08.538Z,99332.06
2023-04-23T21:20:38.219Z,99320.94
2023-04-23T21:23:05.766Z,99327.44
2023-04-23T21:25:34.858Z,99332.75
2023-04-23T21:28:03.120Z,99330.47
2023-04-23T21:30:45.075Z,99335.13
2023-04-23T21:33:13.295Z,99327.75
2023-04-23T21:35:43.130Z,99333.66
2023-04-23T21:38:11.190Z,99337.47
2023-04-23T21:40:39.129Z,99340.75
2023-04-23T21:43:08.294Z,99336.56
2023-04-23T21:45:36.384Z,99333.16
2023-04-23T21:48:05.200Z,99339.19
2023-04-23T21:50:33.555Z,99328.16
2023-04-23T21:53:02.834Z,99332.84
2023-04-23T21:55:31.483Z,99341.09
2023-04-23T21:58:09.803Z,99341.25
2023-04-23T22:00:45.350Z,99342.69
2023-04-23T22:03:14.671Z,99352.84
2023-04-23T22:05:49.964Z,99344.03
2023-04-23T22:08:19.581Z,99348.91
2023-04-23T22:10:47.247Z,99348.25
2023-04-23T22:13:14.888Z,99349.19
2023-04-23T22:15:43.245Z,99362.84
2023-04-23T22:18:10.912Z,99364.50
2023-04-23T22:20:39.121Z,99367.63
2023-04-23T22:23:07.153Z,99369.00
2023-04-23T22:25:35.917Z,99374.28
2023-04-23T22:28:03.867Z,99379.53
2023-04-23T22:30:31.440Z,99381.19
2023-04-23T22:32:59.227Z,99387.22
2023-04-23T22:35:27.307Z,99386.00
2023-04-23T22:37:54.214Z,99386.69
2023-04-23T22:40:22.169Z,99385.28
2023-04-23T22:42:51.632Z,99383.66
2023-04-23T22:45:19.803Z,99385.19
2023-04-23T22:47:47.839Z,99385.19
2023-04-23T22:50:15.366Z,99392.16
2023-04-23T22:52:42.969Z,99398.09
2023-04-23T22:55:10.821Z,99390.78
2023-04-23T22:57:38.480Z,99389.88
2023-04-23T23:00:12.809Z,99397.47
2023-04-23T23:02:40.661Z,99391.69
2023-04-23T23:05:08.569Z,99395.66
2023-04-23T23:07:37.893Z,99400.66
2023-04-23T23:10:05.386Z,99406.56
2023-04-23T23:12:33.520Z,99408.09
2023-04-23T23:15:03.687Z,99411.66
2023-04-23T23:17:33.092Z,99408.25
2023-04-23T23:20:00.821Z,99408.53
2023-04-23T23:22:28.042Z,99410.47
2023-04-23T23:24:56.591Z,99413.59
2023-04-23T23:27:23.514Z,99406.91
2023-04-23T23:29:51.517Z,99410.16
2023-04-23T23:32:19.176Z,99421.59
2023-04-23T23:34:48.576Z,99428.16
2023-04-23T23:37:16.233Z,99428.38
2023-04-23T23:39:44.012Z,99429.84
2023-04-23T23:42:11.325Z,99424.66
2023-04-23T23:44:38.963Z,99421.44
2023-04-23T23:47:06.915Z,99416.16
2023-04-23T23:49:35.294Z,99428.81
2023-04-23T23:52:04.848Z,99424.72
2023-04-23T23:54:32.036Z,99433.41
2023-04-23T23:56:59.450Z,99438.00
2023-04-23T23:59:27.003Z,99436.75
